createdAt,value
2023-01-15T00:03:43.571Z,42.95
2023-01-15T00:08:47.982Z,42.72
2023-01-15T00:13:50.829Z,42.75
2023-01-15T00:18:54.356Z,43.15
2023-01-15T00:24:15.860Z,43.05
2023-01-15T00:29:18.748Z,43.33
2023-01-15T00:34:21.597Z,43.06
2023-01-15T00:39:26.517Z,43.11
2023-01-15T00:44:29.258Z,43.11
2023-01-15T00:49:32.034Z,43.12
2023-01-15T00:54:36.216Z,43.01
2023-01-15T00:59:38.976Z,42.77
2023-01-15T01:04:41.937Z,42.88
2023-01-15T01:09:46.175Z,42.25
2023-01-15T01:14:49.052Z,42.25
2023-01-15T01:19:51.877Z,42.18
2023-01-15T01:24:56.073Z,42.13
2023-01-15T01:29:59.045Z,42.40
2023-01-15T01:35:01.873Z,42.26
2023-01-15T01:40:07.088Z,42.45
2023-01-15T01:45:18.569Z,42.71
2023-01-15T01:50:22.494Z,42.76
2023-01-15T01:55:27.074Z,42.83
2023-01-15T02:00:30.008Z,42.76
2023-01-15T02:05:34.213Z,42.95
2023-01-15T02:10:38.606Z,42.84
2023-01-15T02:15:45.945Z,43.03
2023-01-15T02:20:49.976Z,43.00
2023-01-15T02:26:34.457Z,43.31
2023-01-15T02:31:38.968Z,43.40
2023-01-15T02:36:47.695Z,43.35
2023-01-15T02:42:00.382Z,43.44
2023-01-15T02:47:08.603Z,43.36
2023-01-15T02:52:15.311Z,43.79
2023-01-15T02:57:18.972Z,43.39
2023-01-15T03:02:34.527Z,43.44
2023-01-15T03:07:38.615Z,43.47
2023-01-15T03:12:58.869Z,43.44
2023-01-15T03:18:04.402Z,43.58
2023-01-15T03:23:09.081Z,43.47
2023-01-15T03:28:13.913Z,43.58
2023-01-15T03:33:18.326Z,43.61
2023-01-15T03:38:22.732Z,43.93
2023-01-15T03:43:44.607Z,44.00
2023-01-15T03:48:52.911Z,44.14
2023-01-15T03:53:56.388Z,44.20
2023-01-15T03:59:02.387Z,44.64
2023-01-15T04:04:23.099Z,44.98
2023-01-15T04:09:26.541Z,45.24
2023-01-15T04:14:32.953Z,45.27
2023-01-15T04:19:44.233Z,45.56
2023-01-15T04:24:47.424Z,45.63
2023-01-15T04:29:50.264Z,46.05
2023-01-15T04:34:54.443Z,46.24
2023-01-15T04:39:57.203Z,46.22
2023-01-15T04:45:00.321Z,46.35
2023-01-15T04:50:04.555Z,46.51
2023-01-15T04:55:07.644Z,46.68
2023-01-15T05:00:11.835Z,46.62
2023-01-15T05:05:16.043Z,46.86
2023-01-15T05:10:18.938Z,46.91
2023-01-15T05:15:21.709Z,46.96
2023-01-15T05:20:25.830Z,46.94
2023-01-15T05:25:28.653Z,47.20
2023-01-15T05:30:31.438Z,47.36
2023-01-15T05:35:35.628Z,47.41
2023-01-15T05:40:38.429Z,47.29
2023-01-15T05:45:41.199Z,47.24
2023-01-15T05:50:45.404Z,47.37
2023-01-15T05:55:48.216Z,47.72
2023-01-15T06:00:51.193Z,47.91
2023-01-15T06:05:55.426Z,48.04
2023-01-15T06:10:58.313Z,48.01
2023-01-15T06:16:01.122Z,48.06
2023-01-15T06:21:05.635Z,48.19
2023-01-15T06:26:09.242Z,48.60
2023-01-15T06:31:13.019Z,48.64
2023-01-15T06:36:17.745Z,48.75
2023-01-15T06:41:38.687Z,49.03
2023-01-15T06:47:00.135Z,49.26
2023-01-15T06:52:04.691Z,49.14
2023-01-15T06:57:07.535Z,49.37
2023-01-15T07:02:11.268Z,49.55
2023-01-15T07:07:15.614Z,49.94
2023-01-15T07:12:18.415Z,49.70
2023-01-15T07:17:21.204Z,49.98
2023-01-15T07:22:25.334Z,50.04
2023-01-15T07:27:28.655Z,50.07
2023-01-15T07:32:31.497Z,50.09
2023-01-15T07:37:35.782Z,50.31
2023-01-15T07:42:56.086Z,50.16
2023-01-15T07:48:16.201Z,50.39
2023-01-15T07:53:20.361Z,50.13
2023-01-15T07:58:23.183Z,50.38
2023-01-15T08:03:25.955Z,50.28
2023-01-15T08:08:30.101Z,49.40
2023-01-15T08:13:50.579Z,47.43
2023-01-15T08:18:53.428Z,45.69
2023-01-15T08:23:57.559Z,44.93
2023-01-15T08:29:00.330Z,44.35
2023-01-15T08:34:03.106Z,43.84
2023-01-15T08:39:07.448Z,43.40
2023-01-15T08:44:10.777Z,36.88
2023-01-15T08:49:13.552Z,36.73
2023-01-15T08:54:17.682Z,39.76
2023-01-15T08:59:20.469Z,40.27
2023-01-15T09:04:23.282Z,40.78
2023-01-15T09:09:27.541Z,41.33
2023-01-15T09:14:58.970Z,41.74
2023-01-15T09:19:53.619Z,42.12
2023-01-15T09:24:57.832Z,42.29
2023-01-15T09:30:00.601Z,42.28
2023-01-15T09:35:03.776Z,42.59
2023-01-15T09:40:11.275Z,42.56
2023-01-15T09:45:23.177Z,43.14
2023-01-15T09:50:28.710Z,42.95
2023-01-15T09:55:33.366Z,42.99
2023-01-15T10:00:39.841Z,43.33
2023-01-15T10:05:44.462Z,43.21
2023-01-15T10:10:49.595Z,43.37
2023-01-15T10:15:52.366Z,43.35
2023-01-15T10:21:12.301Z,43.49
2023-01-15T10:26:18.842Z,43.90
2023-01-15T10:31:22.594Z,43.91
2023-01-15T10:36:27.183Z,43.92
2023-01-15T10:41:58.592Z,44.07
2023-01-15T10:47:01.845Z,44.08
2023-01-15T10:52:06.943Z,44.08
2023-01-15T10:57:12.672Z,44.09
2023-01-15T11:02:22.296Z,44.09
2023-01-15T11:07:27.648Z,44.13
2023-01-15T11:12:49.249Z,44.09
2023-01-15T11:18:05.946Z,44.28
2023-01-15T11:23:09.680Z,44.09
2023-01-15T11:28:15.425Z,44.03
2023-01-15T11:33:23.026Z,43.86
2023-01-15T11:38:26.107Z,44.16
2023-01-15T11:43:49.189Z,43.93
2023-01-15T11:49:09.334Z,44.86
2023-01-15T11:54:13.160Z,44.87
2023-01-15T11:59:19.732Z,44.50
2023-01-15T12:04:36.587Z,44.43
2023-01-15T12:09:54.288Z,44.40
2023-01-15T12:15:22.104Z,44.08
2023-01-15T12:20:26.774Z,43.22
2023-01-15T12:25:35.985Z,42.83
2023-01-15T12:30:46.686Z,41.70
2023-01-15T12:35:56.583Z,41.22
2023-01-15T12:41:00.879Z,40.47
2023-01-15T12:46:05.242Z,40.35
2023-01-15T12:51:08.032Z,40.61
2023-01-15T12:56:14.621Z,40.61
2023-01-15T13:01:22.600Z,41.06
2023-01-15T13:06:27.241Z,40.97
2023-01-15T13:11:29.967Z,40.99
2023-01-15T13:16:39.214Z,40.84
2023-01-15T13:21:42.162Z,41.17
2023-01-15T13:27:07.942Z,40.95
2023-01-15T13:32:14.857Z,41.18
2023-01-15T13:37:23.989Z,41.26
2023-01-15T13:42:33.285Z,41.40
2023-01-15T13:47:38.447Z,41.85
2023-01-15T13:52:41.300Z,41.61
2023-01-15T13:57:44.637Z,41.73
2023-01-15T14:02:54.156Z,42.00
2023-01-15T14:07:57.079Z,42.10
2023-01-15T14:13:10.270Z,42.23
2023-01-15T14:18:34.767Z,42.41
2023-01-15T14:23:53.450Z,42.43
2023-01-15T14:29:02.532Z,42.32
2023-01-15T14:34:28.642Z,42.65
2023-01-15T14:39:42.575Z,42.64
2023-01-15T14:44:45.390Z,42.76
2023-01-15T14:50:18.274Z,42.58
2023-01-15T14:55:21.121Z,42.88
2023-01-15T15:00:24.108Z,42.82
2023-01-15T15:05:28.682Z,42.81
2023-01-15T15:10:33.814Z,42.71
2023-01-15T15:15:40.247Z,42.95
2023-01-15T15:20:49.606Z,43.21
2023-01-15T15:25:56.535Z,43.22
2023-01-15T15:31:01.454Z,43.20
2023-01-15T15:36:06.427Z,43.90
2023-01-15T15:41:12.032Z,44.04
2023-01-15T15:46:43.953Z,44.02
2023-01-15T15:51:49.538Z,43.83
2023-01-15T15:56:55.414Z,44.04
2023-01-15T16:01:59.531Z,43.80
2023-01-15T16:07:12.751Z,43.80
2023-01-15T16:12:15.754Z,43.74
2023-01-15T16:17:18.523Z,43.59
2023-01-15T16:22:22.630Z,43.54
2023-01-15T16:27:27.384Z,43.25
2023-01-15T16:32:31.518Z,43.06
2023-01-15T16:37:36.292Z,42.77
2023-01-15T16:42:42.972Z,42.77
2023-01-15T16:47:45.791Z,42.49
2023-01-15T16:52:51.743Z,42.32
2023-01-15T16:58:15.345Z,42.12
2023-01-15T17:03:19.263Z,41.72
2023-01-15T17:08:24.372Z,41.32
2023-01-15T17:13:33.418Z,41.32
2023-01-15T17:18:36.437Z,40.98
2023-01-15T17:23:42.913Z,41.03
2023-01-15T17:28:45.853Z,40.78
2023-01-15T17:33:50.621Z,40.48
2023-01-15T17:38:55.013Z,40.59
2023-01-15T17:43:57.794Z,40.42
2023-01-15T17:49:00.828Z,40.07
2023-01-15T17:54:05.219Z,40.06
2023-01-15T17:59:29.048Z,39.85
2023-01-15T18:04:50.510Z,39.89
2023-01-15T18:09:56.279Z,39.87
2023-01-15T18:14:59.173Z,39.64
2023-01-15T18:20:02.120Z,39.37
2023-01-15T18:25:07.093Z,39.45
2023-01-15T18:30:11.619Z,39.31
2023-01-15T18:35:14.983Z,39.22
2023-01-15T18:40:19.679Z,39.83
2023-01-15T18:45:40.190Z,39.74
2023-01-15T18:50:42.989Z,39.71
2023-01-15T18:55:47.135Z,39.58
2023-01-15T19:00:49.973Z,39.66
2023-01-15T19:05:53.195Z,39.72
2023-01-15T19:10:57.697Z,39.65
2023-01-15T19:16:17.907Z,39.71
2023-01-15T19:21:20.941Z,39.74
2023-01-15T19:26:25.121Z,39.83
2023-01-15T19:31:38.534Z,39.88
2023-01-15T19:36:41.385Z,39.47
2023-01-15T19:42:03.227Z,39.72
2023-01-15T19:47:23.771Z,39.57
2023-01-15T19:52:35.776Z,39.63
2023-01-15T19:57:39.991Z,39.43
2023-01-15T20:02:43.616Z,39.34
2023-01-15T20:07:46.425Z,39.34
2023-01-15T20:13:08.247Z,39.33
2023-01-15T20:18:11.021Z,39.46
2023-01-15T20:23:14.547Z,39.36
2023-01-15T20:28:18.812Z,39.45
2023-01-15T20:33:22.657Z,39.23
2023-01-15T20:38:25.423Z,39.31
2023-01-15T20:43:47.205Z,39.14
2023-01-15T20:49:07.358Z,39.23
2023-01-15T20:54:10.191Z,39.25
2023-01-15T20:59:14.412Z,39.34
2023-01-15T21:04:17.189Z,39.22
2023-01-15T21:09:20.235Z,39.32
2023-01-15T21:14:24.668Z,39.29
2023-01-15T21:19:27.606Z,39.24
2023-01-15T21:24:30.474Z,39.29
2023-01-15T21:29:34.726Z,39.25
2023-01-15T21:34:37.774Z,39.27
2023-01-15T21:39:41.546Z,39.52
2023-01-15T21:44:45.986Z,38.68
2023-01-15T21:49:48.822Z,39.71
2023-01-15T21:54:52.215Z,39.74
2023-01-15T21:59:56.575Z,39.67
2023-01-15T22:04:59.313Z,39.92
2023-01-15T22:10:02.662Z,39.92
2023-01-15T22:15:07.852Z,40.20
2023-01-15T22:20:12.450Z,40.20
2023-01-15T22:25:15.788Z,40.16
2023-01-15T22:30:20.413Z,40.07
2023-01-15T22:35:24.837Z,40.44
2023-01-15T22:40:27.616Z,40.36
2023-01-15T22:45:31.984Z,40.36
2023-01-15T22:50:34.765Z,40.36
2023-01-15T22:55:37.624Z,40.45
2023-01-15T23:00:41.954Z,40.48
2023-01-15T23:05:44.753Z,40.35
2023-01-15T23:10:49.512Z,40.40
2023-01-15T23:15:58.322Z,40.34
2023-01-15T23:21:03.455Z,40.42
2023-01-15T23:26:06.545Z,40.24
2023-01-15T23:31:10.886Z,40.20
2023-01-15T23:36:13.930Z,39.98
2023-01-15T23:41:17.566Z,40.21
2023-01-15T23:46:35.148Z,39.81
2023-01-15T23:51:38.241Z,39.55
2023-01-15T23:56:41.065Z,39.50
